createdAt,value
2022-10-01T00:00:00.281Z,889.2
2022-10-01T00:01:00.426Z,889.2
2022-10-01T00:02:00.378Z,889.2
2022-10-01T00:03:00.387Z,889.2
2022-10-01T00:04:00.337Z,889.2
2022-10-01T00:05:00.303Z,889.2
2022-10-01T00:06:00.316Z,889.2
2022-10-01T00:07:00.439Z,889.1
2022-10-01T00:08:00.377Z,889.2
2022-10-01T00:09:00.297Z,889.2
2022-10-01T00:10:00.319Z,889.2
2022-10-01T00:11:00.459Z,889.1
2022-10-01T00:12:00.361Z,889.2
2022-10-01T00:13:00.471Z,889.2
2022-10-01T00:14:00.294Z,889.2
2022-10-01T00:15:04.347Z,889.2
2022-10-01T00:16:00.363Z,889.2
2022-10-01T00:17:00.467Z,889.2
2022-10-01T00:18:00.301Z,889.2
2022-10-01T00:19:00.678Z,889.2
2022-10-01T00:20:00.309Z,889.2
2022-10-01T00:21:00.298Z,889.2
2022-10-01T00:22:00.287Z,889.2
2022-10-01T00:23:00.310Z,889.3
2022-10-01T00:24:00.283Z,889.2
2022-10-01T00:25:00.594Z,889.2
2022-10-01T00:26:00.418Z,889.3
2022-10-01T00:27:00.436Z,889.2
2022-10-01T00:28:00.350Z,889.2
2022-10-01T00:29:00.282Z,889.2
2022-10-01T00:30:00.292Z,889.3
2022-10-01T00:31:00.471Z,889.3
2022-10-01T00:32:00.406Z,889.3
2022-10-01T00:33:00.317Z,889.2
2022-10-01T00:34:00.308Z,889.3
2022-10-01T00:35:00.291Z,889.3
2022-10-01T00:36:00.287Z,889.3
2022-10-01T00:37:00.452Z,889.2
2022-10-01T00:38:00.282Z,889.3
2022-10-01T00:39:00.284Z,889.3
2022-10-01T00:40:00.309Z,889.3
2022-10-01T00:41:00.277Z,889.3
2022-10-01T00:42:00.401Z,889.3
2022-10-01T00:43:00.510Z,889.3
2022-10-01T00:44:00.293Z,889.3
2022-10-01T00:45:00.295Z,889.3
2022-10-01T00:46:00.351Z,889.3
2022-10-01T00:47:00.287Z,889.3
2022-10-01T00:48:00.300Z,889.4
2022-10-01T00:49:00.431Z,889.4
2022-10-01T00:50:00.308Z,889.4
2022-10-01T00:51:00.305Z,889.4
2022-10-01T00:52:00.338Z,889.4
2022-10-01T00:53:00.361Z,889.4
2022-10-01T00:54:00.280Z,889.4
2022-10-01T00:55:00.445Z,889.4
2022-10-01T00:56:00.366Z,889.4
2022-10-01T00:57:00.425Z,889.4
2022-10-01T00:58:00.298Z,889.4
2022-10-01T00:59:00.300Z,889.5
2022-10-01T01:00:00.363Z,889.5
2022-10-01T01:01:00.491Z,889.5
2022-10-01T01:02:00.388Z,889.5
2022-10-01T01:03:00.345Z,889.4
2022-10-01T01:04:00.297Z,889.5
2022-10-01T01:05:00.283Z,889.4
2022-10-01T01:06:00.280Z,889.5
2022-10-01T01:07:00.511Z,889.4
2022-10-01T01:08:00.317Z,889.5
2022-10-01T01:09:00.279Z,889.4
2022-10-01T01:10:00.309Z,889.4
2022-10-01T01:11:00.288Z,889.4
2022-10-01T01:12:00.411Z,889.4
2022-10-01T01:13:00.365Z,889.4
2022-10-01T01:14:00.329Z,889.5
2022-10-01T01:15:00.315Z,889.4
2022-10-01T01:16:00.328Z,889.4
2022-10-01T01:17:00.310Z,889.4
2022-10-01T01:18:00.300Z,889.5
2022-10-01T01:19:00.738Z,889.5
2022-10-01T01:20:00.301Z,889.5
2022-10-01T01:21:00.293Z,889.4
2022-10-01T01:22:00.309Z,889.5
2022-10-01T01:23:00.351Z,889.5
2022-10-01T01:24:00.278Z,889.5
2022-10-01T01:25:00.443Z,889.5
2022-10-01T01:26:00.292Z,889.5
2022-10-01T01:27:00.450Z,889.5
2022-10-01T01:28:00.346Z,889.4
2022-10-01T01:29:00.301Z,889.4
2022-10-01T01:30:00.289Z,889.4
2022-10-01T01:31:00.473Z,889.4
2022-10-01T01:32:00.296Z,889.5
2022-10-01T01:33:00.288Z,889.4
2022-10-01T01:34:00.282Z,889.5
2022-10-01T01:35:00.281Z,889.5
2022-10-01T01:36:00.291Z,889.5
2022-10-01T01:37:00.429Z,889.5
2022-10-01T01:38:00.299Z,889.5
2022-10-01T01:39:00.301Z,889.5
2022-10-01T01:40:00.334Z,889.5
2022-10-01T01:41:00.306Z,889.6
2022-10-01T01:42:00.435Z,889.6
2022-10-01T01:43:00.535Z,889.6
2022-10-01T01:44:00.329Z,889.6
2022-10-01T01:45:00.306Z,889.6
2022-10-01T01:46:00.397Z,889.6
2022-10-01T01:47:00.307Z,889.6
2022-10-01T01:48:00.322Z,889.6
2022-10-01T01:49:00.594Z,889.6
2022-10-01T01:50:00.352Z,889.7
2022-10-01T01:51:00.387Z,889.7
2022-10-01T01:52:00.323Z,889.6
2022-10-01T01:53:00.318Z,889.7
2022-10-01T01:54:00.287Z,889.7
2022-10-01T01:55:00.473Z,889.6
2022-10-01T01:56:00.299Z,889.7
2022-10-01T01:57:00.463Z,889.7
2022-10-01T01:58:00.303Z,889.7
2022-10-01T01:59:00.286Z,889.7
2022-10-01T02:00:00.346Z,889.7
2022-10-01T02:01:00.482Z,889.7
2022-10-01T02:02:00.503Z,889.7
2022-10-01T02:03:00.370Z,889.7
2022-10-01T02:04:00.304Z,889.7
2022-10-01T02:05:00.292Z,889.7
2022-10-01T02:06:00.297Z,889.7
2022-10-01T02:07:00.463Z,889.7
2022-10-01T02:08:00.303Z,889.7
2022-10-01T02:09:00.306Z,889.7
2022-10-01T02:10:00.300Z,889.7
2022-10-01T02:11:00.289Z,889.7
2022-10-01T02:12:00.530Z,889.7
2022-10-01T02:13:00.364Z,889.7
2022-10-01T02:14:00.291Z,889.7
2022-10-01T02:15:00.305Z,889.7
2022-10-01T02:16:00.369Z,889.7
2022-10-01T02:17:00.298Z,889.8
2022-10-01T02:18:00.293Z,889.8
2022-10-01T02:19:00.458Z,889.8
2022-10-01T02:20:00.295Z,889.8
2022-10-01T02:21:00.303Z,889.9
2022-10-01T02:22:00.283Z,889.9
2022-10-01T02:23:00.297Z,889.9
2022-10-01T02:24:00.299Z,889.9
2022-10-01T02:25:00.584Z,889.9
2022-10-01T02:26:00.298Z,889.9
2022-10-01T02:27:00.470Z,890.0
2022-10-01T02:28:00.356Z,889.9
2022-10-01T02:29:00.330Z,890.0
2022-10-01T02:30:00.307Z,890.0
2022-10-01T02:31:00.473Z,890.0
2022-10-01T02:32:00.284Z,890.0
2022-10-01T02:33:00.360Z,890.0
2022-10-01T02:34:00.349Z,890.0
2022-10-01T02:35:00.310Z,890.0
2022-10-01T02:36:00.332Z,890.0
2022-10-01T02:37:00.501Z,890.0
2022-10-01T02:38:00.322Z,890.0
2022-10-01T02:39:00.289Z,890.0
2022-10-01T02:40:00.293Z,890.0
2022-10-01T02:41:00.292Z,890.0
2022-10-01T02:42:00.521Z,890.0
2022-10-01T02:43:00.596Z,890.0
2022-10-01T02:44:00.299Z,890.0
2022-10-01T02:45:00.333Z,890.1
2022-10-01T02:46:00.357Z,890.1
2022-10-01T02:47:00.292Z,890.1
2022-10-01T02:48:00.290Z,890.1
2022-10-01T02:49:00.523Z,890.1
2022-10-01T02:50:00.298Z,890.1
2022-10-01T02:51:00.300Z,890.1
2022-10-01T02:52:00.278Z,890.1
2022-10-01T02:53:00.283Z,890.1
2022-10-01T02:54:00.304Z,890.1
2022-10-01T02:55:00.520Z,890.1
2022-10-01T02:56:00.312Z,890.2
2022-10-01T02:57:00.287Z,890.2
2022-10-01T02:58:00.430Z,890.2
2022-10-01T02:59:00.306Z,890.2
2022-10-01T03:00:00.332Z,890.2
2022-10-01T03:01:00.433Z,890.2
2022-10-01T03:02:00.408Z,890.3
2022-10-01T03:03:00.366Z,890.3
2022-10-01T03:04:00.292Z,890.4
2022-10-01T03:05:00.288Z,890.3
2022-10-01T03:06:00.276Z,890.4
2022-10-01T03:07:00.427Z,890.4
2022-10-01T03:08:00.299Z,890.4
2022-10-01T03:09:00.302Z,890.4
2022-10-01T03:10:00.326Z,890.4
2022-10-01T03:11:00.362Z,890.4
2022-10-01T03:12:00.351Z,890.4
2022-10-01T03:13:00.540Z,890.4
2022-10-01T03:14:00.350Z,890.4
2022-10-01T03:15:00.308Z,890.4
2022-10-01T03:16:00.408Z,890.4
2022-10-01T03:17:00.298Z,890.4
2022-10-01T03:18:00.284Z,890.4
2022-10-01T03:19:00.559Z,890.4
2022-10-01T03:20:00.295Z,890.4
2022-10-01T03:21:00.299Z,890.5
2022-10-01T03:22:00.376Z,890.4
2022-10-01T03:23:00.411Z,890.4
2022-10-01T03:24:00.287Z,890.5
2022-10-01T03:25:00.518Z,890.5
2022-10-01T03:26:00.291Z,890.5
2022-10-01T03:27:00.287Z,890.5
2022-10-01T03:28:00.500Z,890.5
2022-10-01T03:29:00.274Z,890.5
2022-10-01T03:30:00.300Z,890.5
2022-10-01T03:31:00.629Z,890.5
2022-10-01T03:32:00.310Z,890.5
2022-10-01T03:33:00.278Z,890.5
2022-10-01T03:34:00.292Z,890.5
2022-10-01T03:35:00.290Z,890.5
2022-10-01T03:36:00.273Z,890.5
2022-10-01T03:37:00.526Z,890.5
2022-10-01T03:38:00.299Z,890.5
2022-10-01T03:39:00.280Z,890.5
2022-10-01T03:40:00.311Z,890.5
2022-10-01T03:41:00.303Z,890.5
2022-10-01T03:42:00.286Z,890.5
2022-10-01T03:43:00.429Z,890.5
2022-10-01T03:44:00.656Z,890.5
2022-10-01T03:45:00.265Z,890.5
2022-10-01T03:46:00.343Z,890.5
2022-10-01T03:47:00.279Z,890.5
2022-10-01T03:48:00.268Z,890.5
2022-10-01T03:49:00.404Z,890.6
2022-10-01T03:50:00.278Z,890.6
2022-10-01T03:51:00.288Z,890.6
2022-10-01T03:52:00.280Z,890.6
2022-10-01T03:53:00.303Z,890.6
2022-10-01T03:54:00.300Z,890.6
2022-10-01T03:55:00.448Z,890.6
2022-10-01T03:56:00.282Z,890.7
2022-10-01T03:57:00.356Z,890.7
2022-10-01T03:58:00.410Z,890.7
2022-10-01T03:59:00.338Z,890.7
2022-10-01T04:00:00.361Z,890.7
2022-10-01T04:01:00.421Z,890.7
2022-10-01T04:02:00.507Z,890.7
2022-10-01T04:03:00.427Z,890.7
2022-10-01T04:04:00.322Z,890.7
2022-10-01T04:05:00.365Z,890.8
2022-10-01T04:06:00.307Z,890.7
2022-10-01T04:07:00.458Z,890.7
2022-10-01T04:08:00.283Z,890.8
2022-10-01T04:09:00.333Z,890.8
2022-10-01T04:10:00.331Z,890.8
2022-10-01T04:11:00.277Z,890.8
2022-10-01T04:12:00.278Z,890.8
2022-10-01T04:13:00.587Z,890.8
2022-10-01T04:14:00.288Z,890.8
2022-10-01T04:15:00.262Z,890.9
2022-10-01T04:16:00.321Z,890.9
2022-10-01T04:17:00.283Z,890.9
2022-10-01T04:18:00.265Z,890.9
2022-10-01T04:19:00.520Z,890.9
2022-10-01T04:20:00.295Z,890.9
2022-10-01T04:21:00.276Z,890.9
2022-10-01T04:22:00.279Z,890.9
2022-10-01T04:23:00.272Z,890.9
2022-10-01T04:24:00.276Z,890.9
2022-10-01T04:25:00.442Z,890.9
2022-10-01T04:26:00.274Z,890.9
2022-10-01T04:27:00.276Z,890.9
2022-10-01T04:28:00.416Z,890.9
2022-10-01T04:29:00.282Z,891.0
2022-10-01T04:30:00.281Z,891.0
2022-10-01T04:31:00.417Z,891.0
2022-10-01T04:32:00.311Z,891.0
2022-10-01T04:33:00.267Z,891.0
2022-10-01T04:34:00.271Z,891.0
2022-10-01T04:35:00.265Z,891.0
2022-10-01T04:36:00.281Z,891.0
2022-10-01T04:37:00.416Z,891.0
2022-10-01T04:38:00.273Z,891.0
2022-10-01T04:39:02.406Z,891.0
2022-10-01T04:40:00.312Z,891.0
2022-10-01T04:41:00.291Z,891.0
2022-10-01T04:42:00.279Z,891.0
2022-10-01T04:43:00.483Z,891.0
2022-10-01T04:44:00.698Z,891.0
2022-10-01T04:45:00.298Z,891.0
2022-10-01T04:46:00.302Z,891.0
2022-10-01T04:47:00.385Z,891.0
2022-10-01T04:48:00.314Z,891.0
2022-10-01T04:49:00.457Z,891.0
2022-10-01T04:50:00.347Z,891.0
2022-10-01T04:51:00.291Z,891.0
2022-10-01T04:52:00.302Z,891.0
2022-10-01T04:53:00.292Z,891.0
2022-10-01T04:54:00.332Z,891.0
2022-10-01T04:55:00.468Z,891.0
2022-10-01T04:56:00.288Z,891.1
2022-10-01T04:57:00.364Z,891.1
2022-10-01T04:58:00.418Z,891.0
2022-10-01T04:59:00.303Z,891.1
2022-10-01T05:00:00.340Z,891.0
2022-10-01T05:01:02.315Z,891.0
2022-10-01T05:02:00.423Z,891.0
2022-10-01T05:03:00.299Z,891.0
2022-10-01T05:04:00.305Z,891.0
2022-10-01T05:05:00.295Z,891.1
2022-10-01T05:06:00.305Z,891.1
2022-10-01T05:07:00.537Z,891.1
2022-10-01T05:08:00.286Z,891.1
2022-10-01T05:09:00.313Z,891.1
2022-10-01T05:10:00.313Z,891.1
2022-10-01T05:11:00.319Z,891.1
2022-10-01T05:12:00.291Z,891.1
2022-10-01T05:13:00.500Z,891.1
2022-10-01T05:14:00.577Z,891.1
2022-10-01T05:15:00.290Z,891.1
2022-10-01T05:16:00.301Z,891.1
2022-10-01T05:17:00.301Z,891.1
2022-10-01T05:18:00.284Z,891.2
2022-10-01T05:19:00.446Z,891.2
2022-10-01T05:20:00.345Z,891.1
2022-10-01T05:21:00.281Z,891.1
2022-10-01T05:22:00.303Z,891.1
2022-10-01T05:23:00.286Z,891.1
2022-10-01T05:24:00.311Z,891.1
2022-10-01T05:25:00.473Z,891.1
2022-10-01T05:26:00.290Z,891.1
2022-10-01T05:27:00.286Z,891.2
2022-10-01T05:28:00.349Z,891.2
2022-10-01T05:29:00.512Z,891.1
2022-10-01T05:30:00.297Z,891.1
2022-10-01T05:31:00.554Z,891.1
2022-10-01T05:32:00.326Z,891.1
2022-10-01T05:33:00.297Z,891.1
2022-10-01T05:34:00.309Z,891.2
2022-10-01T05:35:00.309Z,891.1
2022-10-01T05:36:00.345Z,891.1
2022-10-01T05:37:00.451Z,891.2
2022-10-01T05:38:00.300Z,891.2
2022-10-01T05:39:00.296Z,891.1
2022-10-01T05:40:00.327Z,891.2
2022-10-01T05:41:00.468Z,891.2
2022-10-01T05:42:05.387Z,891.1
2022-10-01T05:43:00.463Z,891.1
2022-10-01T05:44:00.359Z,891.1
2022-10-01T05:45:00.367Z,891.1
2022-10-01T05:46:00.363Z,891.1
2022-10-01T05:47:00.296Z,891.1
2022-10-01T05:48:00.280Z,891.1
2022-10-01T05:49:00.502Z,891.1
2022-10-01T05:50:00.353Z,891.1
2022-10-01T05:51:00.301Z,891.1
2022-10-01T05:52:00.320Z,891.1
2022-10-01T05:53:00.320Z,891.1
2022-10-01T05:54:00.333Z,891.1
2022-10-01T05:55:00.522Z,891.1
2022-10-01T05:56:00.294Z,891.1
2022-10-01T05:57:00.523Z,891.1
2022-10-01T05:58:00.367Z,891.0
2022-10-01T05:59:00.554Z,891.0
2022-10-01T06:00:00.283Z,891.0
2022-10-01T06:01:00.500Z,890.9
2022-10-01T06:02:00.443Z,891.0
2022-10-01T06:03:00.543Z,891.0
2022-10-01T06:04:00.314Z,891.0
2022-10-01T06:05:00.283Z,890.9
2022-10-01T06:06:00.294Z,890.9
2022-10-01T06:07:00.442Z,890.9
2022-10-01T06:08:00.353Z,890.9
2022-10-01T06:09:00.306Z,890.9
2022-10-01T06:10:00.360Z,890.9
2022-10-01T06:11:00.282Z,890.9
2022-10-01T06:12:00.288Z,890.9
2022-10-01T06:13:00.427Z,890.9
2022-10-01T06:14:00.387Z,890.9
2022-10-01T06:15:00.504Z,890.9
2022-10-01T06:16:00.377Z,890.9
2022-10-01T06:17:00.299Z,890.9
2022-10-01T06:18:00.276Z,890.9
2022-10-01T06:19:00.489Z,890.9
2022-10-01T06:20:00.297Z,890.9
2022-10-01T06:21:00.306Z,890.9
2022-10-01T06:22:00.281Z,890.9
2022-10-01T06:23:00.281Z,890.9
2022-10-01T06:24:00.347Z,890.9
2022-10-01T06:25:00.528Z,890.9
2022-10-01T06:26:00.381Z,890.9
2022-10-01T06:27:00.371Z,890.9
2022-10-01T06:28:00.326Z,890.9
2022-10-01T06:29:00.334Z,890.9
2022-10-01T06:30:00.408Z,890.9
2022-10-01T06:31:00.430Z,890.9
2022-10-01T06:32:00.418Z,890.9
2022-10-01T06:33:00.372Z,890.9
2022-10-01T06:34:00.412Z,890.9
2022-10-01T06:35:00.294Z,890.9
2022-10-01T06:36:00.348Z,890.9
2022-10-01T06:37:00.546Z,891.0
2022-10-01T06:38:00.301Z,890.9
2022-10-01T06:39:00.282Z,890.9
2022-10-01T06:40:00.316Z,890.9
2022-10-01T06:41:00.300Z,890.9
2022-10-01T06:42:00.309Z,890.9
2022-10-01T06:43:00.507Z,890.9
2022-10-01T06:44:00.309Z,890.9
2022-10-01T06:45:00.465Z,890.9
2022-10-01T06:46:00.412Z,890.9
2022-10-01T06:47:00.312Z,890.9
2022-10-01T06:48:00.475Z,890.9
2022-10-01T06:49:00.462Z,890.9
2022-10-01T06:50:00.283Z,890.9
2022-10-01T06:51:00.285Z,890.9
2022-10-01T06:52:00.301Z,890.9
2022-10-01T06:53:00.310Z,890.9
2022-10-01T06:54:00.311Z,890.9
2022-10-01T06:55:00.426Z,890.9
2022-10-01T06:56:00.434Z,890.9
2022-10-01T06:57:00.297Z,890.9
2022-10-01T06:58:00.297Z,890.9
2022-10-01T06:59:00.302Z,890.9
2022-10-01T07:00:00.459Z,890.9
2022-10-01T07:01:00.569Z,890.9
2022-10-01T07:02:00.364Z,890.9
2022-10-01T07:03:00.300Z,890.9
2022-10-01T07:04:00.300Z,890.9
2022-10-01T07:05:00.299Z,890.9
2022-10-01T07:06:00.316Z,890.9
2022-10-01T07:07:00.480Z,890.9
2022-10-01T07:08:00.295Z,890.9
2022-10-01T07:09:00.296Z,890.8
2022-10-01T07:10:00.294Z,890.8
2022-10-01T07:11:00.289Z,890.9
2022-10-01T07:12:00.323Z,890.8
2022-10-01T07:13:00.443Z,890.8
2022-10-01T07:14:00.462Z,890.8
2022-10-01T07:15:00.387Z,890.8
2022-10-01T07:16:00.575Z,890.8
2022-10-01T07:17:00.380Z,890.8
2022-10-01T07:18:00.369Z,890.8
2022-10-01T07:19:00.546Z,890.8
2022-10-01T07:20:00.316Z,890.8
2022-10-01T07:21:00.296Z,890.8
2022-10-01T07:22:00.291Z,890.7
2022-10-01T07:23:00.290Z,890.7
2022-10-01T07:24:00.313Z,890.7
2022-10-01T07:25:00.483Z,890.7
2022-10-01T07:26:00.347Z,890.7
2022-10-01T07:27:05.060Z,890.7
2022-10-01T07:28:00.415Z,890.6
2022-10-01T07:29:00.313Z,890.7
2022-10-01T07:30:00.295Z,890.7
2022-10-01T07:31:00.523Z,890.7
2022-10-01T07:32:00.503Z,890.6
2022-10-01T07:33:00.303Z,890.6
2022-10-01T07:34:00.315Z,890.6
2022-10-01T07:35:00.300Z,890.6
2022-10-01T07:36:00.304Z,890.6
2022-10-01T07:37:00.417Z,890.6
2022-10-01T07:38:00.289Z,890.6
2022-10-01T07:39:00.295Z,890.6
2022-10-01T07:40:04.129Z,890.6
2022-10-01T07:41:00.309Z,890.6
2022-10-01T07:42:00.309Z,890.6
2022-10-01T07:43:00.443Z,890.6
2022-10-01T07:44:00.283Z,890.5
2022-10-01T07:45:00.298Z,890.6
2022-10-01T07:46:00.450Z,890.5
2022-10-01T07:47:00.508Z,890.5
2022-10-01T07:48:00.358Z,890.4
2022-10-01T07:49:00.371Z,890.5
2022-10-01T07:50:00.296Z,890.5
2022-10-01T07:51:00.305Z,890.4
2022-10-01T07:52:00.302Z,890.4
2022-10-01T07:53:00.288Z,890.5
2022-10-01T07:54:00.310Z,890.4
2022-10-01T07:55:00.537Z,890.4
2022-10-01T07:56:00.292Z,890.4
2022-10-01T07:57:00.318Z,890.4
2022-10-01T07:58:00.316Z,890.4
2022-10-01T07:59:00.304Z,890.4
2022-10-01T08:00:00.302Z,890.4
2022-10-01T08:01:00.520Z,890.4
2022-10-01T08:02:00.565Z,890.4
2022-10-01T08:03:00.745Z,890.3
2022-10-01T08:04:00.362Z,890.3
2022-10-01T08:05:00.327Z,890.3
2022-10-01T08:06:00.280Z,890.3
2022-10-01T08:07:00.469Z,890.3
2022-10-01T08:08:00.293Z,890.3
2022-10-01T08:09:00.316Z,890.4
2022-10-01T08:10:00.300Z,890.3
2022-10-01T08:11:00.347Z,890.3
2022-10-01T08:12:00.325Z,890.3
2022-10-01T08:13:00.686Z,890.3
2022-10-01T08:14:00.364Z,890.3
2022-10-01T08:15:00.294Z,890.3
2022-10-01T08:16:00.301Z,890.3
2022-10-01T08:17:00.394Z,890.3
2022-10-01T08:18:00.519Z,890.2
2022-10-01T08:19:00.473Z,890.3
2022-10-01T08:20:00.414Z,890.3
2022-10-01T08:21:00.386Z,890.3
2022-10-01T08:22:00.358Z,890.3
2022-10-01T08:23:00.511Z,890.2
2022-10-01T08:24:00.570Z,890.2
2022-10-01T08:25:00.423Z,890.2
2022-10-01T08:26:00.313Z,890.2
2022-10-01T08:27:00.285Z,890.3
2022-10-01T08:28:00.390Z,890.2
2022-10-01T08:29:00.315Z,890.2
2022-10-01T08:30:00.308Z,890.2
2022-10-01T08:31:00.522Z,890.2
2022-10-01T08:32:00.381Z,890.2
2022-10-01T08:33:00.439Z,890.2
2022-10-01T08:34:00.466Z,890.1
2022-10-01T08:35:00.294Z,890.1
2022-10-01T08:36:00.303Z,890.1
2022-10-01T08:37:00.479Z,890.1
2022-10-01T08:38:00.299Z,890.0
2022-10-01T08:39:00.298Z,890.1
2022-10-01T08:40:00.296Z,890.1
2022-10-01T08:41:00.303Z,890.0
2022-10-01T08:42:00.580Z,890.0
2022-10-01T08:43:00.530Z,890.0
2022-10-01T08:44:00.308Z,890.0
2022-10-01T08:45:00.307Z,890.1
2022-10-01T08:46:00.366Z,890.0
2022-10-01T08:47:00.315Z,890.0
2022-10-01T08:48:00.304Z,890.0
2022-10-01T08:49:00.475Z,890.1
2022-10-01T08:50:00.291Z,890.0
2022-10-01T08:51:00.289Z,890.0
2022-10-01T08:52:00.374Z,890.0
2022-10-01T08:53:00.298Z,890.0
2022-10-01T08:54:00.286Z,890.0
2022-10-01T08:55:00.532Z,890.0
2022-10-01T08:56:00.407Z,889.9
2022-10-01T08:57:00.358Z,890.0
2022-10-01T08:58:00.316Z,889.9
2022-10-01T08:59:00.355Z,889.9
2022-10-01T09:00:00.365Z,889.9
2022-10-01T09:01:00.625Z,889.9
2022-10-01T09:02:00.370Z,889.9
2022-10-01T09:03:00.430Z,889.9
2022-10-01T09:04:00.523Z,889.9
2022-10-01T09:05:01.766Z,889.8
2022-10-01T09:06:00.302Z,889.8
2022-10-01T09:07:00.429Z,889.8
2022-10-01T09:08:00.295Z,889.8
2022-10-01T09:09:00.306Z,889.8
2022-10-01T09:10:00.287Z,889.8
2022-10-01T09:11:00.314Z,889.8
2022-10-01T09:12:00.297Z,889.7
2022-10-01T09:13:00.660Z,889.8
2022-10-01T09:14:00.291Z,889.7
2022-10-01T09:15:00.309Z,889.7
2022-10-01T09:16:00.322Z,889.7
2022-10-01T09:17:00.294Z,889.7
2022-10-01T09:18:00.315Z,889.7
2022-10-01T09:19:00.463Z,889.7
2022-10-01T09:20:00.370Z,889.6
2022-10-01T09:21:00.305Z,889.7
2022-10-01T09:22:00.308Z,889.6
2022-10-01T09:23:00.297Z,889.6
2022-10-01T09:24:00.306Z,889.6
2022-10-01T09:25:00.408Z,889.6
2022-10-01T09:26:00.349Z,889.6
2022-10-01T09:27:00.278Z,889.5
2022-10-01T09:28:00.352Z,889.5
2022-10-01T09:29:00.306Z,889.5
2022-10-01T09:30:00.319Z,889.4
2022-10-01T09:31:00.424Z,889.4
2022-10-01T09:32:00.337Z,889.4
2022-10-01T09:33:00.282Z,889.5
2022-10-01T09:34:00.472Z,889.4
2022-10-01T09:35:04.292Z,889.4
2022-10-01T09:36:00.294Z,889.4
2022-10-01T09:37:00.484Z,889.4
2022-10-01T09:38:00.409Z,889.4
2022-10-01T09:39:00.363Z,889.4
2022-10-01T09:40:00.358Z,889.4
2022-10-01T09:41:00.375Z,889.4
2022-10-01T09:42:00.352Z,889.3
2022-10-01T09:43:00.575Z,889.3
2022-10-01T09:44:00.363Z,889.3
2022-10-01T09:45:00.411Z,889.3
2022-10-01T09:46:00.448Z,889.3
2022-10-01T09:47:00.301Z,889.3
2022-10-01T09:48:00.364Z,889.3
2022-10-01T09:49:00.580Z,889.3
2022-10-01T09:50:00.400Z,889.3
2022-10-01T09:51:00.551Z,889.3
2022-10-01T09:52:00.325Z,889.3
2022-10-01T09:53:00.333Z,889.3
2022-10-01T09:54:00.347Z,889.3
2022-10-01T09:55:00.528Z,889.3
2022-10-01T09:56:00.341Z,889.2
2022-10-01T09:57:00.365Z,889.2
2022-10-01T09:58:00.292Z,889.2
2022-10-01T09:59:00.345Z,889.2
2022-10-01T10:00:00.321Z,889.1
2022-10-01T10:01:00.461Z,889.1
2022-10-01T10:02:00.481Z,889.1
2022-10-01T10:03:00.552Z,889.1
2022-10-01T10:04:00.454Z,889.1
2022-10-01T10:05:00.481Z,889.1
2022-10-01T10:06:00.316Z,889.0
2022-10-01T10:07:00.557Z,889.1
2022-10-01T10:08:00.471Z,889.0
2022-10-01T10:09:00.386Z,889.0
2022-10-01T10:10:00.318Z,889.0
2022-10-01T10:11:00.309Z,889.0
2022-10-01T10:12:00.289Z,889.0
2022-10-01T10:13:00.503Z,889.0
2022-10-01T10:14:00.338Z,889.0
2022-10-01T10:15:00.292Z,888.9
2022-10-01T10:16:00.537Z,888.9
2022-10-01T10:17:00.337Z,888.9
2022-10-01T10:18:00.305Z,888.9
2022-10-01T10:19:00.470Z,888.8
2022-10-01T10:20:00.513Z,888.9
2022-10-01T10:21:00.300Z,888.8
2022-10-01T10:22:00.521Z,888.8
2022-10-01T10:23:00.362Z,888.8
2022-10-01T10:24:00.375Z,888.8
2022-10-01T10:25:00.519Z,888.8
2022-10-01T10:26:00.324Z,888.8
2022-10-01T10:27:00.355Z,888.8
2022-10-01T10:28:00.417Z,888.8
2022-10-01T10:29:00.289Z,888.8
2022-10-01T10:30:00.541Z,888.8
2022-10-01T10:31:00.553Z,888.8
2022-10-01T10:32:00.469Z,888.8
2022-10-01T10:33:00.277Z,888.8
2022-10-01T10:34:00.360Z,888.8
2022-10-01T10:35:03.164Z,888.8
2022-10-01T10:36:00.275Z,888.8
2022-10-01T10:37:00.462Z,888.8
2022-10-01T10:38:00.388Z,888.7
2022-10-01T10:39:00.288Z,888.8
2022-10-01T10:40:00.291Z,888.7
2022-10-01T10:41:00.290Z,888.7
2022-10-01T10:42:00.331Z,888.7
2022-10-01T10:43:00.543Z,888.7
2022-10-01T10:44:00.294Z,888.7
2022-10-01T10:45:00.304Z,888.7
2022-10-01T10:46:00.364Z,888.7
2022-10-01T10:47:00.324Z,888.7
2022-10-01T10:48:00.320Z,888.7
2022-10-01T10:49:00.464Z,888.6
2022-10-01T10:50:00.513Z,888.6
2022-10-01T10:51:00.456Z,888.6
2022-10-01T10:52:00.293Z,888.6
2022-10-01T10:53:00.299Z,888.6
2022-10-01T10:54:00.307Z,888.6
2022-10-01T10:55:00.443Z,888.6
2022-10-01T10:56:00.299Z,888.6
2022-10-01T10:57:00.295Z,888.6
2022-10-01T10:58:04.471Z,888.6
2022-10-01T10:59:00.303Z,888.6
2022-10-01T11:00:00.323Z,888.5
2022-10-01T11:01:00.486Z,888.5
2022-10-01T11:02:00.398Z,888.5
2022-10-01T11:03:00.280Z,888.5
2022-10-01T11:04:00.281Z,888.5
2022-10-01T11:05:00.299Z,888.4
2022-10-01T11:06:00.458Z,888.4
2022-10-01T11:07:00.476Z,888.4
2022-10-01T11:08:00.316Z,888.4
2022-10-01T11:09:00.310Z,888.4
2022-10-01T11:10:00.341Z,888.4
2022-10-01T11:11:00.386Z,888.4
2022-10-01T11:12:00.277Z,888.4
2022-10-01T11:13:00.447Z,888.3
2022-10-01T11:14:00.345Z,888.3
2022-10-01T11:15:00.336Z,888.4
2022-10-01T11:16:00.498Z,888.4
2022-10-01T11:17:00.429Z,888.4
2022-10-01T11:18:00.328Z,888.4
2022-10-01T11:19:00.508Z,888.3
2022-10-01T11:20:00.366Z,888.3
2022-10-01T11:21:00.379Z,888.4
2022-10-01T11:22:00.421Z,888.4
2022-10-01T11:23:00.327Z,888.3
2022-10-01T11:24:00.386Z,888.3
2022-10-01T11:25:00.518Z,888.3
2022-10-01T11:26:00.292Z,888.3
2022-10-01T11:27:00.304Z,888.3
2022-10-01T11:28:00.342Z,888.3
2022-10-01T11:29:00.288Z,888.3
2022-10-01T11:30:00.281Z,888.3
2022-10-01T11:31:00.479Z,888.2
2022-10-01T11:32:00.302Z,888.2
2022-10-01T11:33:00.311Z,888.3
2022-10-01T11:34:00.300Z,888.2
2022-10-01T11:35:00.307Z,888.2
2022-10-01T11:36:00.297Z,888.2
2022-10-01T11:37:00.651Z,888.2
2022-10-01T11:38:00.325Z,888.2
2022-10-01T11:39:00.301Z,888.2
2022-10-01T11:40:00.291Z,888.2
2022-10-01T11:41:00.297Z,888.1
2022-10-01T11:42:00.289Z,888.1
2022-10-01T11:43:00.557Z,888.2
2022-10-01T11:44:00.291Z,888.1
2022-10-01T11:45:00.952Z,888.1
2022-10-01T11:46:00.327Z,888.1
2022-10-01T11:47:00.297Z,888.1
2022-10-01T11:48:00.314Z,888.1
2022-10-01T11:49:00.428Z,888.1
2022-10-01T11:50:00.286Z,888.1
2022-10-01T11:51:00.325Z,888.1
2022-10-01T11:52:00.508Z,888.1
2022-10-01T11:53:00.322Z,888.1
2022-10-01T11:54:00.313Z,888.0
2022-10-01T11:55:00.558Z,888.0
2022-10-01T11:56:00.290Z,888.0
2022-10-01T11:57:00.288Z,888.0
2022-10-01T11:58:00.307Z,888.0
2022-10-01T11:59:00.299Z,888.0
2022-10-01T12:00:00.369Z,888.0
2022-10-01T12:01:00.511Z,887.9
2022-10-01T12:02:00.325Z,887.9
2022-10-01T12:03:00.352Z,887.9
2022-10-01T12:04:00.301Z,887.9
2022-10-01T12:05:00.297Z,887.9
2022-10-01T12:06:00.288Z,887.9
2022-10-01T12:07:00.507Z,887.9
2022-10-01T12:08:00.346Z,887.9
2022-10-01T12:09:00.371Z,887.9
2022-10-01T12:10:00.311Z,887.9
2022-10-01T12:11:00.316Z,887.9
2022-10-01T12:12:00.298Z,887.9
2022-10-01T12:13:00.450Z,887.9
2022-10-01T12:14:00.314Z,887.8
2022-10-01T12:15:05.532Z,887.8
2022-10-01T12:16:00.341Z,887.8
2022-10-01T12:17:00.292Z,887.8
2022-10-01T12:18:00.310Z,887.8
2022-10-01T12:19:00.581Z,887.8
2022-10-01T12:20:00.351Z,887.8
2022-10-01T12:21:00.295Z,887.8
2022-10-01T12:22:00.396Z,887.7
2022-10-01T12:23:00.291Z,887.8
2022-10-01T12:24:00.320Z,887.8
2022-10-01T12:25:00.512Z,887.8
2022-10-01T12:26:00.286Z,887.8
2022-10-01T12:27:00.305Z,887.8
2022-10-01T12:28:00.365Z,887.8
2022-10-01T12:29:00.647Z,887.8
2022-10-01T12:30:00.321Z,887.8
2022-10-01T12:31:00.598Z,887.8
2022-10-01T12:32:00.309Z,887.8
2022-10-01T12:33:00.304Z,887.8
2022-10-01T12:34:00.312Z,887.8
2022-10-01T12:35:00.296Z,887.8
2022-10-01T12:36:00.291Z,887.8
2022-10-01T12:37:00.535Z,887.8
2022-10-01T12:38:00.314Z,887.8
2022-10-01T12:39:00.331Z,887.8
2022-10-01T12:40:00.296Z,887.8
2022-10-01T12:41:00.283Z,887.8
2022-10-01T12:42:00.325Z,887.8
2022-10-01T12:43:04.044Z,887.8
2022-10-01T12:44:00.272Z,887.8
2022-10-01T12:45:00.296Z,887.8
2022-10-01T12:46:00.390Z,887.8
2022-10-01T12:47:00.316Z,887.7
2022-10-01T12:48:00.315Z,887.8
2022-10-01T12:49:00.491Z,887.7
2022-10-01T12:50:00.359Z,887.7
2022-10-01T12:51:00.325Z,887.7
2022-10-01T12:52:00.426Z,887.8